createdAt,value
2019-04-29T00:00:45.619Z,1018.22
2019-04-29T00:01:45.607Z,1018.22
2019-04-29T00:02:45.594Z,1018.24
2019-04-29T00:03:45.589Z,1018.26
2019-04-29T00:04:45.583Z,1018.24
2019-04-29T00:05:45.574Z,1018.27
2019-04-29T00:06:45.566Z,1018.30
2019-04-29T00:07:45.553Z,1018.27
2019-04-29T00:08:45.545Z,1018.32
2019-04-29T00:09:45.531Z,1018.29
2019-04-29T00:10:45.521Z,1018.30
2019-04-29T00:11:45.514Z,1018.33
2019-04-29T00:12:45.507Z,1018.29
2019-04-29T00:13:45.499Z,1018.37
2019-04-29T00:14:45.491Z,1018.32
2019-04-29T00:15:45.488Z,1018.36
2019-04-29T00:16:45.467Z,1018.39
2019-04-29T00:17:45.463Z,1018.37
2019-04-29T00:18:45.451Z,1018.33
2019-04-29T00:19:45.441Z,1018.39
2019-04-29T00:20:45.437Z,1018.39
2019-04-29T00:21:45.416Z,1018.38
2019-04-29T00:22:45.407Z,1018.40
2019-04-29T00:23:45.398Z,1018.36
2019-04-29T00:24:45.389Z,1018.37
2019-04-29T00:25:45.385Z,1018.37
2019-04-29T00:26:45.375Z,1018.36
2019-04-29T00:27:45.366Z,1018.40
2019-04-29T00:28:45.365Z,1018.40
2019-04-29T00:29:45.343Z,1018.43
2019-04-29T00:30:45.336Z,1018.43
2019-04-29T00:31:45.329Z,1018.44
2019-04-29T00:32:45.319Z,1018.41
2019-04-29T00:33:45.308Z,1018.44
2019-04-29T00:34:45.295Z,1018.47
2019-04-29T00:35:45.285Z,1018.45
2019-04-29T00:36:45.278Z,1018.44
2019-04-29T00:37:45.268Z,1018.39
2019-04-29T00:38:45.265Z,1018.44
2019-04-29T00:39:45.251Z,1018.42
2019-04-29T00:40:45.241Z,1018.42
2019-04-29T00:41:45.226Z,1018.46
2019-04-29T00:42:45.221Z,1018.45
2019-04-29T00:43:45.210Z,1018.52
2019-04-29T00:44:45.201Z,1018.47
2019-04-29T00:45:45.194Z,1018.50
2019-04-29T00:46:45.191Z,1018.53
2019-04-29T00:47:45.173Z,1018.52
2019-04-29T00:48:45.165Z,1018.46
2019-04-29T00:49:45.158Z,1018.47
2019-04-29T00:50:45.148Z,1018.52
2019-04-29T00:51:45.136Z,1018.48
2019-04-29T00:52:45.127Z,1018.49
2019-04-29T00:53:45.113Z,1018.52
2019-04-29T00:54:45.103Z,1018.48
2019-04-29T00:55:45.099Z,1018.49
2019-04-29T00:56:45.092Z,1018.49
2019-04-29T00:57:45.077Z,1018.49
2019-04-29T00:58:45.068Z,1018.50
2019-04-29T00:59:45.064Z,1018.47
2019-04-29T01:00:45.056Z,1018.50
2019-04-29T01:01:45.040Z,1018.49
2019-04-29T01:02:45.029Z,1018.52
2019-04-29T01:03:45.027Z,1018.52
2019-04-29T01:04:45.014Z,1018.50
2019-04-29T01:05:45.063Z,1018.44
2019-04-29T01:06:44.991Z,1018.50
2019-04-29T01:07:44.979Z,1018.52
2019-04-29T01:08:44.972Z,1018.53
2019-04-29T01:09:44.963Z,1018.55
2019-04-29T01:10:44.955Z,1018.50
2019-04-29T01:11:44.946Z,1018.52
2019-04-29T01:12:44.933Z,1018.52
2019-04-29T01:13:44.926Z,1018.51
2019-04-29T01:14:44.918Z,1018.54
2019-04-29T01:15:44.909Z,1018.50
2019-04-29T01:16:44.907Z,1018.57
2019-04-29T01:17:44.888Z,1018.47
2019-04-29T01:18:44.877Z,1018.49
2019-04-29T01:19:44.870Z,1018.55
2019-04-29T01:20:44.859Z,1018.47
2019-04-29T01:21:44.846Z,1018.52
2019-04-29T01:22:44.835Z,1018.52
2019-04-29T01:23:44.823Z,1018.49
2019-04-29T01:24:44.814Z,1018.48
2019-04-29T01:25:44.808Z,1018.51
2019-04-29T01:26:44.798Z,1018.51
2019-04-29T01:27:44.789Z,1018.53
2019-04-29T01:28:44.780Z,1018.50
2019-04-29T01:29:44.769Z,1018.48
2019-04-29T01:30:44.756Z,1018.58
2019-04-29T01:31:44.749Z,1018.54
2019-04-29T01:32:44.739Z,1018.59
2019-04-29T01:33:44.733Z,1018.59
2019-04-29T01:34:44.721Z,1018.57
2019-04-29T01:35:44.709Z,1018.54
2019-04-29T01:36:44.708Z,1018.60
2019-04-29T01:37:44.694Z,1018.61
2019-04-29T01:38:44.682Z,1018.58
2019-04-29T01:39:44.674Z,1018.61
2019-04-29T01:40:44.661Z,1018.60
2019-04-29T01:41:44.647Z,1018.63
2019-04-29T01:42:44.640Z,1018.61
2019-04-29T01:43:44.629Z,1018.65
2019-04-29T01:44:44.620Z,1018.65
2019-04-29T01:45:44.611Z,1018.66
2019-04-29T01:46:44.604Z,1018.64
2019-04-29T01:47:44.602Z,1018.68
2019-04-29T01:48:44.587Z,1018.64
2019-04-29T01:49:44.572Z,1018.66
2019-04-29T01:50:44.560Z,1018.65
2019-04-29T01:51:44.555Z,1018.62
2019-04-29T01:52:44.546Z,1018.63
2019-04-29T01:53:44.532Z,1018.68
2019-04-29T01:54:44.582Z,1018.61
2019-04-29T01:55:44.512Z,1018.64
2019-04-29T01:56:44.501Z,1018.63
2019-04-29T01:57:44.495Z,1018.66
2019-04-29T01:58:44.486Z,1018.68
2019-04-29T01:59:44.475Z,1018.65
2019-04-29T02:00:44.466Z,1018.71
2019-04-29T02:01:44.452Z,1018.72
2019-04-29T02:02:44.441Z,1018.72
2019-04-29T02:03:44.436Z,1018.73
2019-04-29T02:04:44.426Z,1018.66
2019-04-29T02:05:44.417Z,1018.71
2019-04-29T02:06:44.409Z,1018.70
2019-04-29T02:07:44.395Z,1018.69
2019-04-29T02:08:44.385Z,1018.71
2019-04-29T02:09:44.379Z,1018.67
2019-04-29T02:10:44.369Z,1018.72
2019-04-29T02:11:44.357Z,1018.73
2019-04-29T02:12:44.347Z,1018.70
2019-04-29T02:13:44.334Z,1018.71
2019-04-29T02:14:44.325Z,1018.72
2019-04-29T02:15:44.318Z,1018.74
2019-04-29T02:16:44.306Z,1018.73
2019-04-29T02:17:44.300Z,1018.72
2019-04-29T02:18:44.296Z,1018.77
2019-04-29T02:19:44.279Z,1018.72
2019-04-29T02:20:44.269Z,1018.70
2019-04-29T02:21:44.254Z,1018.72
2019-04-29T02:22:44.244Z,1018.74
2019-04-29T02:23:44.238Z,1018.73
2019-04-29T02:24:44.228Z,1018.71
2019-04-29T02:25:44.213Z,1018.76
2019-04-29T02:26:44.203Z,1018.74
2019-04-29T02:27:44.197Z,1018.77
2019-04-29T02:28:44.189Z,1018.73
2019-04-29T02:29:44.180Z,1018.80
2019-04-29T02:30:44.180Z,1018.72
2019-04-29T02:31:44.166Z,1018.74
2019-04-29T02:32:44.154Z,1018.76
2019-04-29T02:33:44.138Z,1018.79
2019-04-29T02:34:44.128Z,1018.70
2019-04-29T02:35:44.117Z,1018.77
2019-04-29T02:36:44.105Z,1018.71
2019-04-29T02:37:44.100Z,1018.72
2019-04-29T02:38:44.091Z,1018.72
2019-04-29T02:39:44.077Z,1018.77
2019-04-29T02:40:44.069Z,1018.82
2019-04-29T02:41:44.060Z,1018.76
2019-04-29T02:42:44.054Z,1018.78
2019-04-29T02:43:44.043Z,1018.75
2019-04-29T02:44:44.034Z,1018.80
2019-04-29T02:45:44.021Z,1018.79
2019-04-29T02:46:44.008Z,1018.78
2019-04-29T02:47:43.999Z,1018.75
2019-04-29T02:48:43.991Z,1018.78
2019-04-29T02:49:43.985Z,1018.79
2019-04-29T02:50:43.972Z,1018.81
2019-04-29T02:51:43.963Z,1018.81
2019-04-29T02:52:43.951Z,1018.81
2019-04-29T02:53:43.936Z,1018.75
2019-04-29T02:54:43.932Z,1018.79
2019-04-29T02:55:43.921Z,1018.82
2019-04-29T02:56:43.914Z,1018.75
2019-04-29T02:57:43.895Z,1018.75
2019-04-29T02:58:43.886Z,1018.74
2019-04-29T02:59:43.878Z,1018.76
2019-04-29T03:00:43.867Z,1018.74
2019-04-29T03:01:43.862Z,1018.81
2019-04-29T03:02:43.907Z,1018.70
2019-04-29T03:03:43.840Z,1018.70
2019-04-29T03:04:43.832Z,1018.72
2019-04-29T03:05:43.816Z,1018.78
2019-04-29T03:06:43.807Z,1018.77
2019-04-29T03:07:43.797Z,1018.73
2019-04-29T03:08:43.789Z,1018.77
2019-04-29T03:09:43.778Z,1018.79
2019-04-29T03:10:43.770Z,1018.78
2019-04-29T03:11:43.760Z,1018.77
2019-04-29T03:12:43.744Z,1018.75
2019-04-29T03:13:43.739Z,1018.74
2019-04-29T03:14:43.728Z,1018.75
2019-04-29T03:15:43.720Z,1018.76
2019-04-29T03:16:43.710Z,1018.73
2019-04-29T03:17:43.696Z,1018.69
2019-04-29T03:18:43.687Z,1018.71
2019-04-29T03:19:43.672Z,1018.75
2019-04-29T03:20:43.664Z,1018.79
2019-04-29T03:21:43.666Z,1018.76
2019-04-29T03:22:43.647Z,1018.75
2019-04-29T03:23:43.640Z,1018.72
2019-04-29T03:24:43.629Z,1018.79
2019-04-29T03:25:43.622Z,1018.82
2019-04-29T03:26:43.614Z,1018.72
2019-04-29T03:27:43.612Z,1018.79
2019-04-29T03:28:43.592Z,1018.77
2019-04-29T03:29:43.573Z,1018.78
2019-04-29T03:30:43.572Z,1018.83
2019-04-29T03:31:43.554Z,1018.90
2019-04-29T03:32:43.549Z,1018.83
2019-04-29T03:33:43.572Z,1018.86
2019-04-29T03:34:43.524Z,1018.86
2019-04-29T03:35:43.516Z,1018.88
2019-04-29T03:36:43.505Z,1018.90
2019-04-29T03:37:43.489Z,1018.82
2019-04-29T03:38:43.480Z,1018.88
2019-04-29T03:39:43.472Z,1018.91
2019-04-29T03:40:43.463Z,1018.94
2019-04-29T03:41:43.456Z,1018.94
2019-04-29T03:42:43.449Z,1018.98
2019-04-29T03:43:43.432Z,1018.97
2019-04-29T03:44:43.423Z,1018.96
2019-04-29T03:45:43.414Z,1018.98
2019-04-29T03:46:43.406Z,1018.99
2019-04-29T03:47:43.398Z,1019.05
2019-04-29T03:48:43.488Z,1019.08
2019-04-29T03:49:43.367Z,1019.10
2019-04-29T03:50:43.360Z,1019.13
2019-04-29T03:51:43.348Z,1019.11
2019-04-29T03:52:43.345Z,1019.09
2019-04-29T03:53:43.330Z,1019.11
2019-04-29T03:54:43.321Z,1019.12
2019-04-29T03:55:43.314Z,1019.15
2019-04-29T03:56:43.304Z,1019.10
2019-04-29T03:57:43.290Z,1019.07
2019-04-29T03:58:43.284Z,1019.07
2019-04-29T03:59:43.271Z,1019.03
2019-04-29T04:00:44.282Z,1019.11
2019-04-29T04:01:43.248Z,1019.09
2019-04-29T04:02:43.237Z,1019.08
2019-04-29T04:03:43.227Z,1019.15
2019-04-29T04:04:43.215Z,1019.08
2019-04-29T04:05:43.207Z,1019.15
2019-04-29T04:06:43.205Z,1019.14
2019-04-29T04:07:43.187Z,1019.14
2019-04-29T04:08:43.204Z,1019.13
2019-04-29T04:09:43.166Z,1019.14
2019-04-29T04:10:43.158Z,1019.12
2019-04-29T04:11:43.152Z,1019.17
2019-04-29T04:12:43.134Z,1019.19
2019-04-29T04:13:43.128Z,1019.16
2019-04-29T04:14:43.118Z,1019.11
2019-04-29T04:15:43.104Z,1019.07
2019-04-29T04:16:43.095Z,1019.11
2019-04-29T04:17:43.088Z,1019.15
2019-04-29T04:18:43.082Z,1019.19
2019-04-29T04:19:43.066Z,1019.16
2019-04-29T04:20:43.053Z,1019.12
2019-04-29T04:21:43.039Z,1019.21
2019-04-29T04:22:43.037Z,1019.16
2019-04-29T04:23:43.023Z,1019.18
2019-04-29T04:24:43.012Z,1019.24
2019-04-29T04:25:43.005Z,1019.20
2019-04-29T04:26:43.001Z,1019.18
2019-04-29T04:27:42.984Z,1019.17
2019-04-29T04:28:42.974Z,1019.14
2019-04-29T04:29:42.958Z,1019.14
2019-04-29T04:30:42.951Z,1019.17
2019-04-29T04:31:42.944Z,1019.20
2019-04-29T04:32:42.934Z,1019.17
2019-04-29T04:33:42.918Z,1019.15
2019-04-29T04:34:42.909Z,1019.22
2019-04-29T04:35:42.906Z,1019.23
2019-04-29T04:36:42.949Z,1019.23
2019-04-29T04:37:42.884Z,1019.21
2019-04-29T04:38:42.876Z,1019.26
2019-04-29T04:39:42.864Z,1019.28
2019-04-29T04:40:42.856Z,1019.36
2019-04-29T04:41:42.841Z,1019.40
2019-04-29T04:42:42.838Z,1019.41
2019-04-29T04:43:42.819Z,1019.51
2019-04-29T04:44:42.811Z,1019.54
2019-04-29T04:45:42.807Z,1019.57
2019-04-29T04:46:42.795Z,1019.56
2019-04-29T04:47:42.783Z,1019.64
2019-04-29T04:48:42.771Z,1019.65
2019-04-29T04:49:42.768Z,1019.65
2019-04-29T04:50:42.757Z,1019.65
2019-04-29T04:51:42.754Z,1019.62
2019-04-29T04:52:42.762Z,1019.63
2019-04-29T04:53:42.730Z,1019.66
2019-04-29T04:54:42.719Z,1019.62
2019-04-29T04:55:42.711Z,1019.63
2019-04-29T04:56:42.701Z,1019.67
2019-04-29T04:57:42.697Z,1019.69
2019-04-29T04:58:42.688Z,1019.69
2019-04-29T04:59:42.677Z,1019.71
2019-04-29T05:00:42.670Z,1019.80
2019-04-29T05:01:42.656Z,1019.81
2019-04-29T05:02:42.648Z,1019.83
2019-04-29T05:03:42.645Z,1019.83
2019-04-29T05:04:42.637Z,1019.85
2019-04-29T05:05:42.927Z,1019.87
2019-04-29T05:06:42.618Z,1019.93
2019-04-29T05:07:42.613Z,1019.95
2019-04-29T05:08:42.606Z,1019.96
2019-04-29T05:09:42.603Z,1019.97
2019-04-29T05:10:42.594Z,1020.03
2019-04-29T05:11:42.591Z,1020.04
2019-04-29T05:12:42.583Z,1020.12
2019-04-29T05:13:42.570Z,1020.09
2019-04-29T05:14:42.564Z,1020.13
2019-04-29T05:15:42.556Z,1020.15
2019-04-29T05:16:42.608Z,1020.11
2019-04-29T05:17:42.545Z,1020.20
2019-04-29T05:18:42.542Z,1020.20
2019-04-29T05:19:42.530Z,1020.18
2019-04-29T05:20:42.525Z,1020.22
2019-04-29T05:21:42.523Z,1020.22
2019-04-29T05:22:42.519Z,1020.24
2019-04-29T05:23:42.515Z,1020.26
2019-04-29T05:24:42.508Z,1020.28
2019-04-29T05:25:42.499Z,1020.33
2019-04-29T05:26:42.494Z,1020.35
2019-04-29T05:27:42.489Z,1020.38
2019-04-29T05:28:42.486Z,1020.46
2019-04-29T05:29:42.484Z,1020.50
2019-04-29T05:30:42.480Z,1020.47
2019-04-29T05:31:42.477Z,1020.54
2019-04-29T05:32:42.469Z,1020.55
2019-04-29T05:33:42.460Z,1020.52
2019-04-29T05:34:46.608Z,1020.60
2019-04-29T05:35:42.456Z,1020.64
2019-04-29T05:36:42.452Z,1020.66
2019-04-29T05:37:42.443Z,1020.71
2019-04-29T05:38:42.441Z,1020.74
2019-04-29T05:39:42.442Z,1020.81
2019-04-29T05:40:42.436Z,1020.82
2019-04-29T05:41:42.438Z,1020.86
2019-04-29T05:42:42.433Z,1020.87
2019-04-29T05:43:42.433Z,1020.90
2019-04-29T05:44:42.431Z,1020.90
2019-04-29T05:45:46.314Z,1020.98
2019-04-29T05:46:42.426Z,1020.98
2019-04-29T05:47:42.417Z,1021.02
2019-04-29T05:48:42.416Z,1021.06
2019-04-29T05:49:42.868Z,1021.00
2019-04-29T05:50:42.415Z,1021.00
2019-04-29T05:51:42.409Z,1021.05
2019-04-29T05:52:42.409Z,1021.05
2019-04-29T05:53:42.410Z,1021.05
2019-04-29T05:54:42.409Z,1020.99
2019-04-29T05:55:42.412Z,1021.01
2019-04-29T05:56:42.412Z,1021.12
2019-04-29T05:57:42.406Z,1021.24
2019-04-29T05:58:42.406Z,1021.33
2019-04-29T05:59:43.361Z,1021.37
2019-04-29T06:00:42.411Z,1021.37
2019-04-29T06:01:42.592Z,1021.42
2019-04-29T06:02:42.409Z,1021.47
2019-04-29T06:03:44.272Z,1021.41
2019-04-29T06:04:42.414Z,1021.43
2019-04-29T06:05:42.402Z,1021.48
2019-04-29T06:06:42.405Z,1021.49
2019-04-29T06:07:42.410Z,1021.48
2019-04-29T06:08:42.410Z,1021.49
2019-04-29T06:09:42.407Z,1021.51
2019-04-29T06:10:42.412Z,1021.53
2019-04-29T06:11:42.413Z,1021.53
2019-04-29T06:12:44.459Z,1021.58
2019-04-29T06:13:42.420Z,1021.65
2019-04-29T06:14:42.422Z,1021.69
2019-04-29T06:15:42.423Z,1021.63
2019-04-29T06:16:42.426Z,1021.68
2019-04-29T06:17:44.828Z,1021.73
2019-04-29T06:18:42.425Z,1021.72
2019-04-29T06:19:42.427Z,1021.75
2019-04-29T06:20:42.428Z,1021.79
2019-04-29T06:21:42.435Z,1021.84
2019-04-29T06:22:43.525Z,1021.78
2019-04-29T06:23:42.439Z,1021.78
2019-04-29T06:24:42.439Z,1021.82
2019-04-29T06:25:42.446Z,1021.85
2019-04-29T06:26:43.714Z,1021.91
2019-04-29T06:27:42.457Z,1021.92
2019-04-29T06:28:42.462Z,1021.93
2019-04-29T06:29:42.460Z,1022.00
2019-04-29T06:30:45.085Z,1021.96
2019-04-29T06:31:42.462Z,1021.99
2019-04-29T06:32:42.472Z,1021.99
2019-04-29T06:33:42.473Z,1021.99
2019-04-29T06:34:42.478Z,1021.95
2019-04-29T06:35:43.367Z,1021.95
2019-04-29T06:36:42.489Z,1021.96
2019-04-29T06:37:42.489Z,1022.00
2019-04-29T06:38:42.493Z,1022.03
2019-04-29T06:39:42.500Z,1021.99
2019-04-29T06:40:42.506Z,1022.03
2019-04-29T06:41:45.445Z,1022.09
2019-04-29T06:42:42.511Z,1022.03
2019-04-29T06:43:42.514Z,1022.09
2019-04-29T06:44:44.369Z,1022.12
2019-04-29T06:45:42.526Z,1022.21
2019-04-29T06:46:42.534Z,1022.01
2019-04-29T06:47:42.539Z,1022.20
2019-04-29T06:48:42.543Z,1022.20
2019-04-29T06:49:42.545Z,1022.22
2019-04-29T06:50:42.549Z,1022.27
2019-04-29T06:51:42.558Z,1022.28
2019-04-29T06:52:42.563Z,1022.28
2019-04-29T06:53:42.572Z,1022.33
2019-04-29T06:54:42.579Z,1022.33
2019-04-29T06:55:42.580Z,1022.28
2019-04-29T06:56:42.586Z,1022.29
2019-04-29T06:57:42.594Z,1022.30
2019-04-29T06:58:42.607Z,1022.30
2019-04-29T06:59:43.034Z,1022.22
2019-04-29T07:00:42.613Z,1022.26
2019-04-29T07:01:42.618Z,1022.27
2019-04-29T07:02:45.554Z,1022.26
2019-04-29T07:03:42.625Z,1022.26
2019-04-29T07:04:42.634Z,1021.38
2019-04-29T07:05:42.642Z,1021.34
2019-04-29T07:06:56.295Z,1021.39
2019-04-29T07:07:42.659Z,1021.38
2019-04-29T07:08:42.666Z,1021.39
2019-04-29T07:09:42.670Z,1021.42
2019-04-29T07:10:42.752Z,1021.40
2019-04-29T07:11:42.687Z,1021.37
2019-04-29T07:12:47.137Z,1021.41
2019-04-29T07:13:42.696Z,1021.43
2019-04-29T07:14:42.702Z,1021.44
2019-04-29T07:15:43.468Z,1021.43
2019-04-29T07:16:42.712Z,1021.38
2019-04-29T07:17:43.043Z,1021.45
2019-04-29T07:18:48.249Z,1021.31
2019-04-29T07:19:42.742Z,1021.40
2019-04-29T07:20:42.749Z,1021.29
2019-04-29T07:21:47.092Z,1021.47
2019-04-29T07:22:42.757Z,1021.44
2019-04-29T07:23:42.763Z,1021.51
2019-04-29T07:24:42.772Z,1021.47
2019-04-29T07:25:42.782Z,1021.46
2019-04-29T07:26:42.787Z,1021.44
2019-04-29T07:27:44.259Z,1021.48
2019-04-29T07:28:42.801Z,1021.53
2019-04-29T07:29:42.815Z,1021.51
2019-04-29T07:31:00.726Z,1021.53
2019-04-29T07:31:42.823Z,1021.61
2019-04-29T07:32:47.096Z,1021.57
2019-04-29T07:33:42.836Z,1021.56
2019-04-29T07:34:42.843Z,1021.59
2019-04-29T07:35:47.367Z,1021.57
2019-04-29T07:36:42.870Z,1021.60
2019-04-29T07:37:42.873Z,1021.59
2019-04-29T07:38:46.467Z,1021.62
2019-04-29T07:39:42.888Z,1021.59
2019-04-29T07:40:43.333Z,1021.59
2019-04-29T07:41:42.897Z,1021.65
2019-04-29T07:42:42.905Z,1021.60
2019-04-29T07:43:44.170Z,1021.60
2019-04-29T07:44:44.089Z,1021.62
2019-04-29T07:45:44.439Z,1021.62
2019-04-29T07:46:56.107Z,1021.61
2019-04-29T07:47:55.755Z,1021.56
2019-04-29T07:48:43.791Z,1021.61
2019-04-29T07:49:42.970Z,1021.61
2019-04-29T07:50:42.981Z,1021.59
2019-04-29T07:51:42.989Z,1021.59
2019-04-29T07:52:45.716Z,1021.60
2019-04-29T07:53:45.390Z,1021.62
2019-04-29T07:54:43.012Z,1021.63
2019-04-29T07:55:43.017Z,1021.66
2019-04-29T07:56:43.688Z,1021.68
2019-04-29T07:57:43.042Z,1021.70
2019-04-29T07:58:43.053Z,1021.71
2019-04-29T07:59:43.063Z,1021.74
2019-04-29T08:00:44.544Z,1021.72
2019-04-29T08:01:43.080Z,1021.69
2019-04-29T08:02:43.092Z,1021.66
2019-04-29T08:03:43.116Z,1021.47
2019-04-29T08:04:43.116Z,1021.60
2019-04-29T08:05:43.123Z,1021.70
2019-04-29T08:06:44.787Z,1021.73
2019-04-29T08:07:43.145Z,1021.72
2019-04-29T08:08:54.299Z,1021.80
2019-04-29T08:09:44.265Z,1021.74
2019-04-29T08:10:54.075Z,1021.76
2019-04-29T08:11:43.190Z,1021.74
2019-04-29T08:12:43.201Z,1021.79
2019-04-29T08:13:43.210Z,1021.75
2019-04-29T08:14:43.224Z,1021.76
2019-04-29T08:15:43.683Z,1021.81
2019-04-29T08:16:43.250Z,1021.75
2019-04-29T08:17:43.255Z,1021.79
2019-04-29T08:18:43.267Z,1021.78
2019-04-29T08:19:43.284Z,1021.78
2019-04-29T08:20:43.295Z,1021.77
2019-04-29T08:21:45.394Z,1021.78
2019-04-29T08:22:43.325Z,1021.72
2019-04-29T08:23:43.339Z,1021.74
2019-04-29T08:24:45.967Z,1021.68
2019-04-29T08:25:43.361Z,1021.72
2019-04-29T08:26:47.326Z,1021.75
2019-04-29T08:27:43.873Z,1021.74
2019-04-29T08:28:43.398Z,1021.71
2019-04-29T08:29:43.414Z,1021.68
2019-04-29T08:30:45.857Z,1021.61
2019-04-29T08:31:43.437Z,1021.73
2019-04-29T08:32:43.450Z,1021.76
2019-04-29T08:33:46.803Z,1021.73
2019-04-29T08:34:43.486Z,1021.73
2019-04-29T08:35:46.608Z,1021.69
2019-04-29T08:36:43.517Z,1021.65
2019-04-29T08:37:43.543Z,1021.70
2019-04-29T08:38:43.534Z,1021.67
2019-04-29T08:39:43.542Z,1021.74
2019-04-29T08:40:45.232Z,1021.71
2019-04-29T08:41:43.572Z,1021.73
2019-04-29T08:42:46.775Z,1021.74
2019-04-29T08:43:43.599Z,1021.77
2019-04-29T08:44:43.613Z,1021.78
2019-04-29T08:45:43.619Z,1021.86
2019-04-29T08:46:44.463Z,1021.71
2019-04-29T08:47:43.651Z,1021.78
2019-04-29T08:48:45.905Z,1021.57
2019-04-29T08:49:43.672Z,1021.43
2019-04-29T08:50:43.685Z,1021.35
2019-04-29T08:51:43.694Z,1021.30
2019-04-29T08:52:43.709Z,1021.22
2019-04-29T08:53:43.728Z,1021.22
2019-04-29T08:54:43.738Z,1021.18
2019-04-29T08:55:43.749Z,1021.45
2019-04-29T08:57:01.878Z,1021.51
2019-04-29T08:57:43.769Z,1021.53
2019-04-29T08:58:44.402Z,1021.58
2019-04-29T08:59:43.795Z,1021.62
2019-04-29T09:00:43.804Z,1021.64
2019-04-29T09:01:43.818Z,1021.63
2019-04-29T09:02:47.012Z,1021.32
2019-04-29T09:03:43.838Z,1021.22
2019-04-29T09:04:53.287Z,1021.27
2019-04-29T09:05:46.110Z,1021.33
2019-04-29T09:06:43.875Z,1021.53
2019-04-29T09:07:43.883Z,1021.23
2019-04-29T09:08:54.995Z,1021.16
2019-04-29T09:09:43.901Z,1021.16
2019-04-29T09:10:43.913Z,1021.08
2019-04-29T09:11:47.936Z,1021.09
2019-04-29T09:12:43.934Z,1021.07
2019-04-29T09:13:43.947Z,1020.98
2019-04-29T09:14:43.958Z,1021.03
2019-04-29T09:15:43.969Z,1020.99
2019-04-29T09:16:43.978Z,1020.95
2019-04-29T09:17:43.983Z,1020.90
2019-04-29T09:18:43.990Z,1020.82
2019-04-29T09:19:44.005Z,1020.86
2019-04-29T09:20:44.012Z,1020.83
2019-04-29T09:21:44.016Z,1020.82
2019-04-29T09:22:44.025Z,1020.84
2019-04-29T09:23:44.026Z,1020.81
2019-04-29T09:24:48.106Z,1020.89
2019-04-29T09:25:44.044Z,1020.89
2019-04-29T09:26:44.048Z,1020.93
2019-04-29T09:27:45.103Z,1020.85
2019-04-29T09:28:44.061Z,1020.86
2019-04-29T09:29:46.409Z,1020.77
2019-04-29T09:30:44.067Z,1020.77
2019-04-29T09:31:46.692Z,1020.79
2019-04-29T09:32:44.083Z,1020.80
2019-04-29T09:33:48.858Z,1020.84
2019-04-29T09:34:44.095Z,1021.27
2019-04-29T09:35:44.095Z,1021.69
2019-04-29T09:36:48.275Z,1021.72
2019-04-29T09:37:44.109Z,1021.57
2019-04-29T09:38:44.113Z,1021.37
2019-04-29T09:39:44.117Z,1021.26
2019-04-29T09:40:45.774Z,1021.23
2019-04-29T09:41:44.123Z,1021.24
2019-04-29T09:42:45.513Z,1021.26
2019-04-29T09:43:44.143Z,1021.24
2019-04-29T09:44:44.997Z,1021.30
2019-04-29T09:45:44.154Z,1021.24
2019-04-29T09:46:44.162Z,1021.25
2019-04-29T09:47:44.168Z,1021.28
2019-04-29T09:48:44.178Z,1021.29
2019-04-29T09:49:44.191Z,1021.36
2019-04-29T09:50:44.208Z,1021.28
2019-04-29T09:51:44.208Z,1021.35
2019-04-29T09:52:44.220Z,1021.27
2019-04-29T09:53:44.237Z,1021.26
2019-04-29T09:54:44.249Z,1021.31
2019-04-29T09:55:44.263Z,1021.34
2019-04-29T09:56:44.280Z,1021.27
2019-04-29T09:57:44.284Z,1021.30
2019-04-29T09:58:44.303Z,1021.27
2019-04-29T09:59:44.310Z,1021.21
2019-04-29T10:00:44.338Z,1021.22
2019-04-29T10:01:44.349Z,1021.17
2019-04-29T10:02:44.357Z,1021.14
2019-04-29T10:03:44.370Z,1021.18
2019-04-29T10:04:55.836Z,1021.15
2019-04-29T10:05:44.393Z,1021.11
2019-04-29T10:06:44.406Z,1021.11
2019-04-29T10:07:44.424Z,1021.18
2019-04-29T10:08:44.438Z,1020.87
2019-04-29T10:09:56.495Z,1020.79
2019-04-29T10:10:44.462Z,1020.74
2019-04-29T10:11:44.480Z,1020.77
2019-04-29T10:12:44.494Z,1020.70
2019-04-29T10:13:44.509Z,1020.72
2019-04-29T10:14:44.523Z,1020.67
2019-04-29T10:15:44.536Z,1020.62
2019-04-29T10:16:44.552Z,1020.58
2019-04-29T10:17:45.809Z,1020.60
2019-04-29T10:18:44.568Z,1020.56
2019-04-29T10:19:44.576Z,1020.79
2019-04-29T10:20:44.586Z,1020.54
2019-04-29T10:21:44.601Z,1020.60
2019-04-29T10:22:44.611Z,1020.75
2019-04-29T10:23:44.616Z,1020.73
2019-04-29T10:24:44.628Z,1020.66
2019-04-29T10:25:44.639Z,1020.76
2019-04-29T10:26:44.648Z,1020.77
2019-04-29T10:27:44.662Z,1020.78
2019-04-29T10:28:44.668Z,1020.87
2019-04-29T10:29:44.673Z,1020.83
2019-04-29T10:30:44.681Z,1020.86
2019-04-29T10:31:44.691Z,1020.86
2019-04-29T10:32:44.704Z,1020.74
2019-04-29T10:33:44.715Z,1020.78
2019-04-29T10:34:44.725Z,1020.52
2019-04-29T10:35:45.208Z,1020.49
2019-04-29T10:36:44.742Z,1020.51
2019-04-29T10:37:44.747Z,1020.49
2019-04-29T10:38:45.941Z,1020.44
2019-04-29T10:39:44.780Z,1020.48
2019-04-29T10:40:44.783Z,1020.44
2019-04-29T10:41:44.788Z,1020.45
2019-04-29T10:42:44.801Z,1020.40
2019-04-29T10:43:44.813Z,1020.39
2019-04-29T10:44:44.819Z,1020.36
2019-04-29T10:45:44.833Z,1020.38
2019-04-29T10:46:44.840Z,1020.35
2019-04-29T10:47:44.843Z,1020.31
2019-04-29T10:48:44.850Z,1020.33
2019-04-29T10:49:44.853Z,1020.21
2019-04-29T10:50:47.071Z,1020.20
2019-04-29T10:51:44.869Z,1020.41
2019-04-29T10:52:44.875Z,1020.27
2019-04-29T10:53:46.748Z,1020.35
2019-04-29T10:54:44.894Z,1020.17
2019-04-29T10:55:44.895Z,1020.18
2019-04-29T10:56:44.902Z,1020.12
2019-04-29T10:57:49.750Z,1020.13
2019-04-29T10:58:44.918Z,1020.11
2019-04-29T10:59:46.116Z,1020.13
2019-04-29T11:00:44.929Z,1020.13
2019-04-29T11:01:44.929Z,1020.11
2019-04-29T11:02:49.367Z,1020.09
2019-04-29T11:03:44.945Z,1020.07
2019-04-29T11:04:44.949Z,1020.12
2019-04-29T11:05:59.935Z,1019.96
2019-04-29T11:06:44.963Z,1020.22
2019-04-29T11:07:44.972Z,1020.24
2019-04-29T11:08:44.975Z,1020.31
2019-04-29T11:09:46.323Z,1020.41
2019-04-29T11:10:44.981Z,1020.31
2019-04-29T11:11:44.991Z,1020.30
2019-04-29T11:12:44.997Z,1020.28
2019-04-29T11:13:49.863Z,1020.03
2019-04-29T11:14:45.003Z,1020.11
2019-04-29T11:15:49.276Z,1020.04
2019-04-29T11:16:46.977Z,1020.03
2019-04-29T11:17:46.423Z,1019.95
2019-04-29T11:18:45.032Z,1019.96
2019-04-29T11:19:45.040Z,1019.96
2019-04-29T11:20:48.927Z,1019.96
2019-04-29T11:21:45.049Z,1019.94
2019-04-29T11:22:45.054Z,1019.93
2019-04-29T11:23:45.063Z,1019.93
2019-04-29T11:24:45.071Z,1019.93
2019-04-29T11:25:50.981Z,1019.93
2019-04-29T11:26:45.089Z,1019.96
2019-04-29T11:27:45.085Z,1019.85
2019-04-29T11:28:47.008Z,1019.81
2019-04-29T11:29:45.099Z,1019.74
2019-04-29T11:30:45.105Z,1019.76
2019-04-29T11:31:48.970Z,1019.79
2019-04-29T11:32:45.111Z,1019.80
2019-04-29T11:33:45.112Z,1019.80
2019-04-29T11:34:48.604Z,1019.80
2019-04-29T11:35:45.119Z,1019.84
2019-04-29T11:36:45.123Z,1019.81
2019-04-29T11:37:45.131Z,1019.79
2019-04-29T11:38:45.138Z,1019.77
2019-04-29T11:39:46.195Z,1019.75
2019-04-29T11:40:45.145Z,1019.70
2019-04-29T11:41:45.144Z,1019.66
2019-04-29T11:42:45.150Z,1019.60
2019-04-29T11:43:46.756Z,1019.61
2019-04-29T11:44:45.162Z,1019.58
2019-04-29T11:45:45.162Z,1019.62
2019-04-29T11:46:49.004Z,1019.62
2019-04-29T11:47:45.163Z,1019.62
2019-04-29T11:48:45.167Z,1019.54
2019-04-29T11:49:47.808Z,1019.52
2019-04-29T11:50:49.404Z,1019.51
2019-04-29T11:52:07.666Z,1019.48
2019-04-29T11:52:45.183Z,1019.53
2019-04-29T11:53:45.183Z,1019.60
2019-04-29T11:54:45.186Z,1019.63
2019-04-29T11:55:46.448Z,1019.58
2019-04-29T11:56:45.188Z,1019.59
2019-04-29T11:57:45.201Z,1019.67
2019-04-29T11:58:45.198Z,1019.59
2019-04-29T11:59:45.211Z,1019.57
2019-04-29T12:00:45.199Z,1019.58
2019-04-29T12:01:50.888Z,1019.58
2019-04-29T12:02:46.186Z,1019.63
2019-04-29T12:03:45.212Z,1019.57
2019-04-29T12:04:45.214Z,1019.59
2019-04-29T12:05:46.242Z,1019.60